Time;durP1;ratioP1;P1;durP2;ratioP2;P2;SDS_P1;SDS_P2;PMS_P1;PMS_P2;Temp;Humidity;BMP_temperature;BMP_pressure;BME280_temperature;BME280_humidity;BME280_pressure;Samples;Min_cycle;Max_cycle;Signal;HPM_P1;HPM_P2
2021/10/13 01:13:53;;;;;;;7.40;2.77;;;;;;;;;;5075113;27;2229851;-59
2021/10/13 01:16:39;;;;;;;6.00;2.50;;;;;;;;;;5114045;28;20032;-59
2021/10/13 01:19:13;;;;;;;10.87;2.93;;;;;;;;;;5113967;28;20374;-58
2021/10/13 01:21:52;;;;;;;8.32;2.35;;;;;;;;;;5123032;28;20066;-58
2021/10/13 01:24:33;;;;;;;8.17;2.47;;;;;;;;;;5127404;28;20034;-58
2021/10/13 01:27:11;;;;;;;7.80;2.97;;;;;;;;;;5089282;28;20111;-59
2021/10/13 01:29:39;;;;;;;3.80;2.50;;;;;;;;;;5089544;28;20082;-58
2021/10/13 01:32:14;;;;;;;5.80;3.00;;;;;;;;;;5110546;28;20110;-58
2021/10/13 01:34:42;;;;;;;6.20;3.10;;;;;;;;;;5128988;28;20039;-58
2021/10/13 01:37:11;;;;;;;8.07;3.73;;;;;;;;;;5125581;28;20030;-58
2021/10/13 01:39:41;;;;;;;6.77;3.00;;;;;;;;;;5105136;28;20028;-59
2021/10/13 01:42:10;;;;;;;5.40;2.77;;;;;;;;;;5105504;28;20046;-58
2021/10/13 01:44:37;;;;;;;7.03;2.53;;;;;;;;;;5119030;28;20084;-58
2021/10/13 01:47:05;;;;;;;7.63;3.13;;;;;;;;;;5128214;28;20035;-58
2021/10/13 01:49:33;;;;;;;4.70;2.87;;;;;;;;;;5116436;28;20040;-59
2021/10/13 01:52:01;;;;;;;7.13;3.10;;;;;;;;;;5117889;28;20038;-59
2021/10/13 01:54:28;;;;;;;8.40;3.20;;;;;;;;;;5129790;28;20030;-59
2021/10/13 01:56:56;;;;;;;4.70;2.70;;;;;;;;;;5126035;28;20103;-58
2021/10/13 01:59:23;;;;;;;5.83;3.40;;;;;;;;;;5105478;28;20762;-59
2021/10/13 02:01:51;;;;;;;7.43;2.93;;;;;;;;;;5111105;28;20111;-59
2021/10/13 02:04:19;;;;;;;6.13;2.70;;;;;;;;;;5124053;28;20050;-59
2021/10/13 02:06:48;;;;;;;12.73;3.33;;;;;;;;;;5123801;28;20422;-59
2021/10/13 02:09:18;;;;;;;6.47;2.93;;;;;;;;;;5127481;28;20541;-59
2021/10/13 02:11:46;;;;;;;5.30;2.70;;;;;;;;;;5122793;28;20020;-59
2021/10/13 02:14:15;;;;;;;7.43;3.07;;;;;;;;;;5098456;28;20032;-59
2021/10/13 02:16:44;;;;;;;6.50;2.67;;;;;;;;;;5097565;28;20020;-59
2021/10/13 02:19:13;;;;;;;7.07;3.10;;;;;;;;;;5095141;28;20024;-59
2021/10/13 02:21:42;;;;;;;5.13;3.47;;;;;;;;;;5096269;28;20023;-59
2021/10/13 02:24:09;;;;;;;6.07;2.97;;;;;;;;;;5110300;28;20473;-59
2021/10/13 02:26:45;;;;;;;5.90;3.23;;;;;;;;;;5111058;28;20031;-60
2021/10/13 02:29:16;;;;;;;5.27;2.93;;;;;;;;;;5110363;28;20022;-59
2021/10/13 02:31:43;;;;;;;5.20;2.60;;;;;;;;;;5107404;28;20091;-59
2021/10/13 02:34:11;;;;;;;6.93;3.30;;;;;;;;;;5095974;28;20032;-59
2021/10/13 02:36:38;;;;;;;5.17;3.40;;;;;;;;;;5095089;28;20103;-59
2021/10/13 02:39:06;;;;;;;4.80;3.00;;;;;;;;;;5094880;28;20024;-59
2021/10/13 02:41:32;;;;;;;4.70;2.80;;;;;;;;;;5097864;28;20038;-59
2021/10/13 02:43:59;;;;;;;4.07;2.30;;;;;;;;;;5111313;28;20123;-60
2021/10/13 02:46:26;;;;;;;3.27;2.13;;;;;;;;;;5109693;28;20026;-58
2021/10/13 02:49:16;;;;;;;4.83;2.83;;;;;;;;;;5100098;28;20042;-58
2021/10/13 02:51:46;;;;;;;5.03;2.73;;;;;;;;;;5050580;28;20404;-59
2021/10/13 02:54:21;;;;;;;10.97;2.77;;;;;;;;;;5110855;28;20039;-59
2021/10/13 02:56:49;;;;;;;5.53;2.78;;;;;;;;;;5114550;28;20461;-59
2021/10/13 02:59:48;;;;;;;8.17;2.50;;;;;;;;;;5097193;28;20465;-59
2021/10/13 03:02:18;;;;;;;7.23;3.17;;;;;;;;;;5047950;28;20051;-58
2021/10/13 03:04:48;;;;;;;6.07;2.57;;;;;;;;;;5113603;28;20015;-59
2021/10/13 03:07:17;;;;;;;11.07;2.70;;;;;;;;;;5104301;28;20618;-61
2021/10/13 03:09:54;;;;;;;7.93;4.00;;;;;;;;;;5109375;28;20027;-60
2021/10/13 03:12:22;;;;;;;6.43;3.13;;;;;;;;;;5109626;28;20020;-60
2021/10/13 03:14:50;;;;;;;6.63;3.00;;;;;;;;;;5109503;28;20042;-60
2021/10/13 03:17:18;;;;;;;6.33;3.43;;;;;;;;;;5110296;28;20876;-60
2021/10/13 03:19:45;;;;;;;5.17;2.80;;;;;;;;;;5094019;28;20020;-60
2021/10/13 03:22:12;;;;;;;8.47;3.10;;;;;;;;;;5094037;28;20063;-60
2021/10/13 03:24:42;;;;;;;5.30;2.87;;;;;;;;;;5093138;28;20470;-60
2021/10/13 03:27:09;;;;;;;5.33;3.20;;;;;;;;;;5096062;28;20712;-60
2021/10/13 03:29:44;;;;;;;7.00;3.40;;;;;;;;;;5109386;28;20070;-60
2021/10/13 03:32:11;;;;;;;4.90;2.67;;;;;;;;;;5109035;28;20023;-60
2021/10/13 03:34:41;;;;;;;6.20;2.77;;;;;;;;;;5106149;28;20028;-60
2021/10/13 03:37:07;;;;;;;6.23;3.27;;;;;;;;;;5089795;28;20043;-60
2021/10/13 03:39:34;;;;;;;4.57;3.03;;;;;;;;;;5113064;28;20023;-60
2021/10/13 03:42:01;;;;;;;4.10;2.50;;;;;;;;;;5113838;28;20035;-60
2021/10/13 03:44:28;;;;;;;4.73;2.70;;;;;;;;;;5113933;28;20023;-60
2021/10/13 03:46:55;;;;;;;4.57;2.77;;;;;;;;;;5113778;28;20034;-61
2021/10/13 03:49:22;;;;;;;6.20;3.23;;;;;;;;;;5095380;28;20048;-60
2021/10/13 03:51:49;;;;;;;10.30;3.50;;;;;;;;;;5108847;28;20378;-60
2021/10/13 03:54:15;;;;;;;5.17;2.80;;;;;;;;;;5108689;28;20019;-60
2021/10/13 03:56:42;;;;;;;4.40;2.90;;;;;;;;;;5108725;28;20027;-61
2021/10/13 03:59:09;;;;;;;6.67;2.97;;;;;;;;;;5108024;28;20028;-60
2021/10/13 04:01:36;;;;;;;4.60;3.13;;;;;;;;;;5091826;28;20039;-60
2021/10/13 04:04:03;;;;;;;4.87;2.80;;;;;;;;;;5093231;28;20024;-60
2021/10/13 04:06:29;;;;;;;5.00;2.93;;;;;;;;;;5092579;28;20020;-60
2021/10/13 04:08:56;;;;;;;5.37;3.13;;;;;;;;;;5093219;28;20144;-60
2021/10/13 04:11:23;;;;;;;4.47;3.00;;;;;;;;;;5111168;28;20042;-62
2021/10/13 04:13:50;;;;;;;6.40;2.93;;;;;;;;;;5109311;28;20106;-60
2021/10/13 04:16:16;;;;;;;3.97;2.57;;;;;;;;;;5108343;28;20076;-60
2021/10/13 04:18:43;;;;;;;5.10;3.50;;;;;;;;;;5108127;28;20131;-60
2021/10/13 04:21:10;;;;;;;5.77;2.83;;;;;;;;;;5091303;28;20046;-60
2021/10/13 04:23:37;;;;;;;6.77;3.13;;;;;;;;;;5090591;28;20035;-60
2021/10/13 04:26:03;;;;;;;6.07;2.80;;;;;;;;;;5092405;28;20033;-60
2021/10/13 04:28:30;;;;;;;7.70;3.00;;;;;;;;;;5092821;28;20024;-60
2021/10/13 04:30:57;;;;;;;6.70;3.00;;;;;;;;;;5106332;28;20034;-60
2021/10/13 04:33:24;;;;;;;4.20;2.87;;;;;;;;;;5112973;28;20035;-60
2021/10/13 04:35:50;;;;;;;7.30;3.37;;;;;;;;;;5109916;28;20051;-60
2021/10/13 04:38:17;;;;;;;5.70;3.13;;;;;;;;;;5108192;28;20032;-60
2021/10/13 04:40:44;;;;;;;7.53;3.33;;;;;;;;;;5095276;28;20032;-60
2021/10/13 04:43:11;;;;;;;5.57;3.10;;;;;;;;;;5087071;28;20522;-60
2021/10/13 04:45:38;;;;;;;10.60;3.13;;;;;;;;;;5089607;28;20496;-60
2021/10/13 04:48:04;;;;;;;5.27;2.90;;;;;;;;;;5092544;28;20024;-60
2021/10/13 04:50:31;;;;;;;7.37;3.57;;;;;;;;;;5102403;28;20070;-60
2021/10/13 04:52:58;;;;;;;6.10;2.83;;;;;;;;;;5112800;28;20541;-60
2021/10/13 04:55:25;;;;;;;5.00;3.13;;;;;;;;;;5112855;28;20027;-60
2021/10/13 04:57:51;;;;;;;5.03;3.23;;;;;;;;;;5110282;28;20391;-60
2021/10/13 05:00:18;;;;;;;5.07;3.03;;;;;;;;;;5099118;28;20035;-60
2021/10/13 05:02:45;;;;;;;5.27;3.17;;;;;;;;;;5086805;28;20036;-60
2021/10/13 05:05:12;;;;;;;5.40;3.30;;;;;;;;;;5087382;28;20036;-60
2021/10/13 05:07:38;;;;;;;6.37;3.53;;;;;;;;;;5088577;28;20023;-60
2021/10/13 05:10:05;;;;;;;6.50;2.70;;;;;;;;;;5098194;28;20019;-60
2021/10/13 05:12:32;;;;;;;4.20;2.70;;;;;;;;;;5112795;28;20491;-60
2021/10/13 05:14:59;;;;;;;4.93;2.90;;;;;;;;;;5112472;28;20503;-60
2021/10/13 05:17:26;;;;;;;5.47;3.57;;;;;;;;;;5112697;28;20055;-59
2021/10/13 05:19:52;;;;;;;10.40;3.43;;;;;;;;;;5106158;28;20020;-60
2021/10/13 05:22:19;;;;;;;5.77;3.20;;;;;;;;;;5086766;28;20031;-61
2021/10/13 05:24:46;;;;;;;4.97;3.57;;;;;;;;;;5087064;28;20095;-60
2021/10/13 05:27:13;;;;;;;4.90;3.17;;;;;;;;;;5087076;28;20032;-60
2021/10/13 05:29:40;;;;;;;4.43;2.97;;;;;;;;;;5089195;28;20024;-60
2021/10/13 05:32:07;;;;;;;6.80;3.90;;;;;;;;;;5112294;28;20051;-60
2021/10/13 05:34:33;;;;;;;6.20;2.80;;;;;;;;;;5112421;28;20473;-60
2021/10/13 05:37:00;;;;;;;10.73;3.23;;;;;;;;;;5111799;28;20075;-60
2021/10/13 05:39:27;;;;;;;5.93;3.00;;;;;;;;;;5112160;28;20035;-61
2021/10/13 05:41:54;;;;;;;7.50;3.83;;;;;;;;;;5091037;28;20035;-60
2021/10/13 05:44:20;;;;;;;6.40;3.10;;;;;;;;;;5086649;28;20055;-60
2021/10/13 05:46:47;;;;;;;6.70;3.60;;;;;;;;;;5086848;28;20147;-60
2021/10/13 05:49:14;;;;;;;5.23;3.20;;;;;;;;;;5089069;28;20032;-60
2021/10/13 05:51:41;;;;;;;5.47;2.90;;;;;;;;;;5108807;28;20031;-60
2021/10/13 05:54:07;;;;;;;6.80;2.90;;;;;;;;;;5115713;28;20016;-59
2021/10/13 05:56:35;;;;;;;5.43;3.50;;;;;;;;;;5116019;28;20034;-60
2021/10/13 05:59:02;;;;;;;5.40;3.43;;;;;;;;;;5115891;28;20093;-60
2021/10/13 06:01:29;;;;;;;6.80;3.60;;;;;;;;;;5098950;28;20028;-60
2021/10/13 06:03:55;;;;;;;5.13;3.10;;;;;;;;;;5095467;28;20020;-60
2021/10/13 06:06:22;;;;;;;5.03;3.50;;;;;;;;;;5090346;28;20028;-59
2021/10/13 06:08:49;;;;;;;5.50;3.50;;;;;;;;;;5090424;28;20474;-59
2021/10/13 06:11:16;;;;;;;5.60;3.13;;;;;;;;;;5103542;28;20031;-59
2021/10/13 06:13:44;;;;;;;5.03;3.13;;;;;;;;;;5110377;28;20542;-60
2021/10/13 06:16:12;;;;;;;12.93;3.07;;;;;;;;;;5114807;28;20118;-59
2021/10/13 06:18:39;;;;;;;6.27;3.20;;;;;;;;;;5115544;28;20028;-60
2021/10/13 06:21:06;;;;;;;5.40;3.20;;;;;;;;;;5102687;28;20093;-60
2021/10/13 06:23:33;;;;;;;11.23;3.27;;;;;;;;;;5095128;28;20016;-59
2021/10/13 06:25:59;;;;;;;4.57;2.90;;;;;;;;;;5095062;28;20051;-59
2021/10/13 06:28:26;;;;;;;7.90;3.57;;;;;;;;;;5089700;28;20321;-59
2021/10/13 06:30:53;;;;;;;7.67;3.07;;;;;;;;;;5100079;28;20030;-60
2021/10/13 06:33:20;;;;;;;6.23;3.90;;;;;;;;;;5110245;28;20532;-59
2021/10/13 06:35:47;;;;;;;9.30;4.50;;;;;;;;;;5110040;28;20746;-60
2021/10/13 06:38:13;;;;;;;6.03;3.17;;;;;;;;;;5113959;28;20459;-60
2021/10/13 06:40:40;;;;;;;5.43;3.80;;;;;;;;;;5106360;28;20112;-59
2021/10/13 06:43:10;;;;;;;8.73;4.33;;;;;;;;;;5094700;28;20032;-59
2021/10/13 06:45:38;;;;;;;8.30;4.00;;;;;;;;;;5094435;28;20036;-60
2021/10/13 06:48:06;;;;;;;5.40;3.53;;;;;;;;;;5094591;28;20040;-60
2021/10/13 06:50:33;;;;;;;5.43;3.47;;;;;;;;;;5097132;28;20118;-60
2021/10/13 06:53:00;;;;;;;5.73;3.47;;;;;;;;;;5109773;28;20039;-60
2021/10/13 06:55:28;;;;;;;5.23;3.10;;;;;;;;;;5110068;28;20032;-60
2021/10/13 06:57:55;;;;;;;5.60;3.53;;;;;;;;;;5109873;28;20037;-60
2021/10/13 07:00:22;;;;;;;4.97;3.00;;;;;;;;;;5106866;28;20024;-60
2021/10/13 07:02:49;;;;;;;5.90;3.40;;;;;;;;;;5094356;28;20028;-59
2021/10/13 07:05:17;;;;;;;6.67;3.53;;;;;;;;;;5095605;28;20059;-60
2021/10/13 07:07:48;;;;;;;6.77;3.10;;;;;;;;;;5114433;28;20024;-59
2021/10/13 07:10:16;;;;;;;6.30;3.33;;;;;;;;;;5114493;28;20034;-59
2021/10/13 07:12:43;;;;;;;4.97;3.10;;;;;;;;;;5110730;28;20031;-59
2021/10/13 07:15:11;;;;;;;4.70;2.70;;;;;;;;;;5108396;28;20034;-60
2021/10/13 07:17:38;;;;;;;8.67;3.60;;;;;;;;;;5088775;28;20099;-59
2021/10/13 07:20:06;;;;;;;6.33;3.47;;;;;;;;;;5088784;28;20111;-60
2021/10/13 07:22:33;;;;;;;6.37;3.23;;;;;;;;;;5112174;28;20039;-59
2021/10/13 07:25:00;;;;;;;5.33;3.33;;;;;;;;;;5114251;28;20023;-60
2021/10/13 07:27:29;;;;;;;4.73;3.07;;;;;;;;;;5114351;28;20028;-60
2021/10/13 07:30:01;;;;;;;5.37;3.53;;;;;;;;;;5114181;28;20031;-59
2021/10/13 07:32:31;;;;;;;5.60;3.33;;;;;;;;;;5094376;28;20077;-60
2021/10/13 07:34:58;;;;;;;4.90;3.17;;;;;;;;;;5090163;28;20024;-59
2021/10/13 07:37:25;;;;;;;7.40;3.40;;;;;;;;;;5088252;28;20023;-59
2021/10/13 07:39:52;;;;;;;5.87;3.73;;;;;;;;;;5088489;28;20085;-61
2021/10/13 07:42:19;;;;;;;5.23;3.37;;;;;;;;;;5106157;28;20088;-59
2021/10/13 07:44:46;;;;;;;8.50;3.90;;;;;;;;;;5111539;28;20038;-60
2021/10/13 07:47:13;;;;;;;6.27;3.40;;;;;;;;;;5113703;28;20024;-60
2021/10/13 07:49:41;;;;;;;6.47;3.53;;;;;;;;;;5113826;28;20457;-60
2021/10/13 07:52:08;;;;;;;5.67;3.53;;;;;;;;;;5097439;28;20466;-59
2021/10/13 07:54:47;;;;;;;7.17;3.80;;;;;;;;;;5093251;28;20020;-59
2021/10/13 07:57:14;;;;;;;5.03;3.43;;;;;;;;;;5088211;28;20036;-60
2021/10/13 07:59:41;;;;;;;4.93;3.30;;;;;;;;;;5087643;28;20466;-59
2021/10/13 08:02:07;;;;;;;5.40;3.23;;;;;;;;;;5090793;28;20036;-59
2021/10/13 08:04:34;;;;;;;9.50;3.60;;;;;;;;;;5089105;28;20133;-59
2021/10/13 08:07:02;;;;;;;5.07;3.10;;;;;;;;;;5090619;28;20028;-59
2021/10/13 08:09:28;;;;;;;5.27;3.17;;;;;;;;;;5093101;28;20028;-60
2021/10/13 08:11:55;;;;;;;6.73;3.33;;;;;;;;;;5092392;28;20031;-60
2021/10/13 08:14:22;;;;;;;5.97;3.33;;;;;;;;;;5097778;28;20027;-59
2021/10/13 08:22:19;;;;;;;6.75;3.17;;;;;;;;;;5087714;28;20082;-59
2021/10/13 08:30:16;;;;;;;4.72;2.83;;;;;;;;;;5112749;28;20034;-60
2021/10/13 08:32:43;;;;;;;8.00;3.70;;;;;;;;;;5113265;28;20028;-59
2021/10/13 08:35:10;;;;;;;5.17;3.20;;;;;;;;;;5112766;28;20031;-59
2021/10/13 08:37:38;;;;;;;7.73;3.50;;;;;;;;;;5096870;28;20112;-60
2021/10/13 08:40:06;;;;;;;5.93;3.70;;;;;;;;;;5092663;28;20024;-59
2021/10/13 08:42:33;;;;;;;5.13;3.50;;;;;;;;;;5087787;28;20032;-59
2021/10/13 08:44:59;;;;;;;7.53;4.43;;;;;;;;;;5087408;28;20095;-60
2021/10/13 08:47:26;;;;;;;6.00;3.47;;;;;;;;;;5100631;28;20034;-59
2021/10/13 08:49:55;;;;;;;5.77;3.80;;;;;;;;;;5107401;28;20085;-59
2021/10/13 08:52:22;;;;;;;5.33;3.63;;;;;;;;;;5111603;28;20051;-60
2021/10/13 08:54:49;;;;;;;5.33;3.20;;;;;;;;;;5111037;28;20032;-60
2021/10/13 08:57:19;;;;;;;8.63;4.17;;;;;;;;;;5112764;28;20020;-60
2021/10/13 08:59:48;;;;;;;5.90;3.80;;;;;;;;;;5112790;28;20385;-60
2021/10/13 09:02:15;;;;;;;7.13;4.10;;;;;;;;;;5112549;28;20495;-60
2021/10/13 09:05:00;;;;;;;6.10;3.77;;;;;;;;;;5092475;28;20714;-60
2021/10/13 09:07:27;;;;;;;8.43;4.35;;;;;;;;;;5087240;28;20378;-59
2021/10/13 09:09:53;;;;;;;7.70;3.80;;;;;;;;;;5087182;28;20047;-60
2021/10/13 09:12:34;;;;;;;6.73;4.00;;;;;;;;;;5087227;28;20149;-59
2021/10/13 09:15:23;;;;;;;6.57;3.63;;;;;;;;;;5108827;28;20396;-60
2021/10/13 09:17:57;;;;;;;12.47;3.70;;;;;;;;;;5112438;28;20114;-60
2021/10/13 09:20:25;;;;;;;6.47;4.13;;;;;;;;;;5112418;28;20020;-60
2021/10/13 09:23:00;;;;;;;5.90;3.70;;;;;;;;;;5112531;28;20126;-59
2021/10/13 09:25:27;;;;;;;5.38;3.72;;;;;;;;;;5110575;28;20024;-60
2021/10/13 09:27:54;;;;;;;6.00;3.63;;;;;;;;;;5111256;28;20047;-60
2021/10/13 09:30:30;;;;;;;5.97;3.37;;;;;;;;;;5111460;28;20035;-60
2021/10/13 09:33:08;;;;;;;5.77;3.37;;;;;;;;;;5111363;28;20052;-59
2021/10/13 09:35:35;;;;;;;5.87;3.40;;;;;;;;;;5093333;28;20024;-59
2021/10/13 09:38:02;;;;;;;7.23;3.30;;;;;;;;;;5096084;28;20081;-60
2021/10/13 09:40:30;;;;;;;5.83;3.13;;;;;;;;;;5096100;28;20030;-59
2021/10/13 09:43:01;;;;;;;6.63;3.93;;;;;;;;;;5095789;28;20066;-60
2021/10/13 09:45:28;;;;;;;6.30;3.47;;;;;;;;;;5112693;28;20131;-60
2021/10/13 09:48:06;;;;;;;13.43;3.37;;;;;;;;;;5114828;28;20509;-60
2021/10/13 09:50:40;;;;;;;5.63;3.73;;;;;;;;;;5110702;28;20031;-60
2021/10/13 09:53:23;;;;;;;5.00;3.10;;;;;;;;;;5110625;28;20031;-60
2021/10/13 09:55:50;;;;;;;5.23;3.40;;;;;;;;;;5090666;28;20024;-60
2021/10/13 09:58:27;;;;;;;7.03;4.40;;;;;;;;;;5092203;28;20027;-60
2021/10/13 10:01:09;;;;;;;8.70;5.13;;;;;;;;;;5095558;28;20127;-60
2021/10/13 10:03:38;;;;;;;6.87;3.67;;;;;;;;;;5096146;28;20078;-60
2021/10/13 10:06:05;;;;;;;7.33;4.10;;;;;;;;;;5115762;28;20055;-60
2021/10/13 10:08:52;;;;;;;6.63;4.37;;;;;;;;;;5115650;28;20354;-60
2021/10/13 10:11:31;;;;;;;7.67;4.57;;;;;;;;;;5111797;28;20443;-59
2021/10/13 10:13:58;;;;;;;10.67;4.10;;;;;;;;;;5106830;28;20056;-59
2021/10/13 10:16:35;;;;;;;8.60;4.83;;;;;;;;;;5090255;28;20031;-59
2021/10/13 10:19:20;;;;;;;6.90;4.47;;;;;;;;;;5090087;28;20028;-60
2021/10/13 10:21:53;;;;;;;8.20;4.57;;;;;;;;;;5094263;28;20039;-59
2021/10/13 10:24:26;;;;;;;5.80;3.70;;;;;;;;;;5101370;28;20049;-59
2021/10/13 10:26:53;;;;;;;7.37;4.50;;;;;;;;;;5115127;28;20342;-59
2021/10/13 10:29:20;;;;;;;8.10;4.10;;;;;;;;;;5115453;28;20441;-60
2021/10/13 10:31:57;;;;;;;7.30;4.17;;;;;;;;;;5115645;28;21178;-59
2021/10/13 10:34:25;;;;;;;8.40;4.27;;;;;;;;;;5102835;28;20526;-59
2021/10/13 10:36:55;;;;;;;12.83;5.10;;;;;;;;;;5089466;28;20027;-60
2021/10/13 10:39:42;;;;;;;7.33;4.57;;;;;;;;;;5089345;28;20028;-59
2021/10/13 10:42:08;;;;;;;7.07;3.83;;;;;;;;;;5089537;28;20054;-60
2021/10/13 10:44:35;;;;;;;8.50;4.30;;;;;;;;;;5102283;28;20110;-60
2021/10/13 10:47:04;;;;;;;7.20;4.00;;;;;;;;;;5115239;28;20027;-60
2021/10/13 10:49:46;;;;;;;11.53;4.47;;;;;;;;;;5115105;28;20465;-60
2021/10/13 10:52:23;;;;;;;8.30;4.30;;;;;;;;;;5115229;28;20024;-59
2021/10/13 10:54:54;;;;;;;8.63;4.93;;;;;;;;;;5103637;28;20040;-59
2021/10/13 10:57:30;;;;;;;9.43;4.50;;;;;;;;;;5089416;28;20032;-59
2021/10/13 10:59:58;;;;;;;8.73;4.43;;;;;;;;;;5089174;28;20368;-59
2021/10/13 11:02:25;;;;;;;8.33;3.80;;;;;;;;;;5089088;28;20176;-59
2021/10/13 11:05:02;;;;;;;10.93;4.00;;;;;;;;;;5099616;28;20470;-59
2021/10/13 11:07:29;;;;;;;9.33;3.90;;;;;;;;;;5114597;28;20111;-59
2021/10/13 11:10:02;;;;;;;9.77;4.87;;;;;;;;;;5114709;28;20480;-60
2021/10/13 11:12:46;;;;;;;7.60;3.93;;;;;;;;;;5114532;28;20062;-59
2021/10/13 11:15:13;;;;;;;10.47;4.23;;;;;;;;;;5101647;28;20038;-59
2021/10/13 11:17:40;;;;;;;6.67;3.93;;;;;;;;;;5091559;28;20026;-59
2021/10/13 11:20:08;;;;;;;6.77;3.87;;;;;;;;;;5088634;28;20430;-59
2021/10/13 11:22:35;;;;;;;16.00;5.17;;;;;;;;;;5089777;28;20027;-60
2021/10/13 11:25:11;;;;;;;9.17;4.50;;;;;;;;;;5088595;28;20020;-59
2021/10/13 11:27:38;;;;;;;7.13;3.97;;;;;;;;;;5096723;28;20085;-60
2021/10/13 11:30:15;;;;;;;8.40;4.10;;;;;;;;;;5114421;28;20027;-59
2021/10/13 11:32:42;;;;;;;7.00;4.40;;;;;;;;;;5114476;28;20423;-59
2021/10/13 11:35:09;;;;;;;7.13;3.90;;;;;;;;;;5114059;28;20027;-59
2021/10/13 11:37:36;;;;;;;7.00;4.53;;;;;;;;;;5108341;28;20028;-59
2021/10/13 11:40:04;;;;;;;8.60;4.10;;;;;;;;;;5091028;28;20103;-59
2021/10/13 11:42:33;;;;;;;6.30;4.20;;;;;;;;;;5093227;28;20030;-60
2021/10/13 11:45:01;;;;;;;7.10;3.90;;;;;;;;;;5109002;28;20439;-59
2021/10/13 11:47:31;;;;;;;9.47;4.17;;;;;;;;;;5107761;28;20517;-60
2021/10/13 11:49:59;;;;;;;9.60;4.87;;;;;;;;;;5110852;28;20085;-60
2021/10/13 11:52:27;;;;;;;6.83;3.93;;;;;;;;;;5109608;28;20422;-59
2021/10/13 11:54:59;;;;;;;9.50;4.90;;;;;;;;;;5093593;28;20051;-59
2021/10/13 11:57:26;;;;;;;6.00;4.20;;;;;;;;;;5093471;28;20020;-59
2021/10/13 12:00:11;;;;;;;8.83;5.10;;;;;;;;;;5093292;28;20020;-59
2021/10/13 12:02:38;;;;;;;7.25;4.32;;;;;;;;;;5094445;28;20015;-59
2021/10/13 12:05:06;;;;;;;6.50;4.10;;;;;;;;;;5108444;28;20063;-59
2021/10/13 12:07:44;;;;;;;7.30;3.67;;;;;;;;;;5108598;28;20049;-59
2021/10/13 12:10:11;;;;;;;7.03;4.00;;;;;;;;;;5108351;28;20043;-59
2021/10/13 12:12:38;;;;;;;6.33;3.53;;;;;;;;;;5106070;28;20016;-59
2021/10/13 12:15:19;;;;;;;6.77;3.90;;;;;;;;;;5092996;28;20111;-60
2021/10/13 12:17:46;;;;;;;7.00;3.20;;;;;;;;;;5092896;28;20508;-60
2021/10/13 12:20:17;;;;;;;5.73;3.50;;;;;;;;;;5099840;28;20043;-59
2021/10/13 12:22:48;;;;;;;7.30;3.87;;;;;;;;;;5113250;28;20147;-59
2021/10/13 12:25:31;;;;;;;8.40;3.73;;;;;;;;;;5109239;28;20431;-59
2021/10/13 12:27:59;;;;;;;7.00;3.97;;;;;;;;;;5089562;28;20465;-59
2021/10/13 12:30:36;;;;;;;7.30;4.47;;;;;;;;;;5099995;28;20121;-59
2021/10/13 12:33:15;;;;;;;6.57;4.00;;;;;;;;;;5087399;28;20381;-59
2021/10/13 12:35:43;;;;;;;6.37;4.00;;;;;;;;;;5091666;28;20099;-59
2021/10/13 12:38:11;;;;;;;8.33;3.70;;;;;;;;;;5092461;28;20020;-59
2021/10/13 12:40:38;;;;;;;5.27;3.40;;;;;;;;;;5101546;28;20023;-58
2021/10/13 12:43:24;;;;;;;8.27;3.93;;;;;;;;;;5112873;28;20477;-61
2021/10/13 12:45:50;;;;;;;;;;;;;;;;;;5112936;28;20018;-62
2021/10/13 12:48:18;;;;;;;8.37;3.10;;;;;;;;;;5107296;28;19904;-59
2021/10/13 12:51:07;;;;;;;7.43;3.30;;;;;;;;;;5097344;28;20027;-58
2021/10/13 12:53:35;;;;;;;6.03;3.30;;;;;;;;;;5087323;28;20099;-59
2021/10/13 12:56:02;;;;;;;7.80;3.63;;;;;;;;;;5087809;28;20061;-59
2021/10/13 12:58:29;;;;;;;7.70;3.83;;;;;;;;;;5091718;28;20479;-59
2021/10/13 13:00:56;;;;;;;8.03;4.23;;;;;;;;;;5103454;28;20518;-61
2021/10/13 13:03:23;;;;;;;8.83;3.37;;;;;;;;;;5112702;28;20072;-59
2021/10/13 13:05:54;;;;;;;5.70;3.30;;;;;;;;;;5112694;28;20466;-59
2021/10/13 13:08:22;;;;;;;9.63;4.00;;;;;;;;;;5112039;28;20038;-60
2021/10/13 13:10:50;;;;;;;6.77;3.67;;;;;;;;;;5096817;28;20046;-61
2021/10/13 13:13:16;;;;;;;8.90;4.30;;;;;;;;;;5087001;28;20479;-59
2021/10/13 13:15:44;;;;;;;10.77;4.70;;;;;;;;;;5086923;28;20128;-59
2021/10/13 13:18:11;;;;;;;7.07;4.33;;;;;;;;;;5101650;28;20036;-59
2021/10/13 13:20:38;;;;;;;7.00;4.23;;;;;;;;;;5112561;28;20031;-59
2021/10/13 13:23:05;;;;;;;6.40;3.87;;;;;;;;;;5112457;28;20500;-59
2021/10/13 13:25:33;;;;;;;6.87;4.17;;;;;;;;;;5112493;28;20477;-60
2021/10/13 13:28:00;;;;;;;6.30;3.70;;;;;;;;;;5099807;28;20497;-59
2021/10/13 13:30:28;;;;;;;5.90;4.20;;;;;;;;;;5091608;28;20024;-59
2021/10/13 13:32:55;;;;;;;7.00;4.60;;;;;;;;;;5099393;28;20038;-59
2021/10/13 13:35:22;;;;;;;10.30;4.90;;;;;;;;;;5106708;28;20381;-59
2021/10/13 13:37:49;;;;;;;10.37;4.20;;;;;;;;;;5107192;28;20047;-60
2021/10/13 13:40:16;;;;;;;8.20;5.47;;;;;;;;;;5107405;28;20019;-59
2021/10/13 13:42:43;;;;;;;9.17;4.57;;;;;;;;;;5101783;28;20394;-59
2021/10/13 13:45:10;;;;;;;9.53;4.53;;;;;;;;;;5091653;28;20129;-59
2021/10/13 13:47:37;;;;;;;7.67;4.77;;;;;;;;;;5091936;28;20028;-59
2021/10/13 13:50:05;;;;;;;8.57;4.63;;;;;;;;;;5091975;28;20024;-59
2021/10/13 13:52:32;;;;;;;7.27;4.60;;;;;;;;;;5096877;28;20508;-59
2021/10/13 13:54:59;;;;;;;10.03;5.20;;;;;;;;;;5107071;28;20027;-59
2021/10/13 13:57:26;;;;;;;9.03;4.90;;;;;;;;;;5107297;28;20028;-59
2021/10/13 13:59:52;;;;;;;6.20;4.23;;;;;;;;;;5106871;28;20119;-59
2021/10/13 14:02:19;;;;;;;6.70;4.53;;;;;;;;;;5103079;28;20186;-60
2021/10/13 14:04:46;;;;;;;6.73;4.70;;;;;;;;;;5090880;28;20034;-59
2021/10/13 14:07:13;;;;;;;8.07;5.00;;;;;;;;;;5091764;28;20028;-60
2021/10/13 14:09:40;;;;;;;5.73;4.20;;;;;;;;;;5093141;28;20078;-59
2021/10/13 14:12:08;;;;;;;5.57;4.13;;;;;;;;;;5096331;28;20025;-59
2021/10/13 14:14:35;;;;;;;6.83;4.50;;;;;;;;;;5115761;28;20362;-59
2021/10/13 14:17:02;;;;;;;6.43;4.47;;;;;;;;;;5110426;28;20495;-60
2021/10/13 14:19:29;;;;;;;8.53;4.27;;;;;;;;;;5110502;28;20036;-60
2021/10/13 14:21:56;;;;;;;8.70;4.93;;;;;;;;;;5110433;28;20043;-60
2021/10/13 14:24:23;;;;;;;11.57;5.73;;;;;;;;;;5090228;28;20024;-60
2021/10/13 14:26:50;;;;;;;9.30;5.00;;;;;;;;;;5094464;28;20485;-60
2021/10/13 14:29:18;;;;;;;14.10;6.37;;;;;;;;;;5094887;28;20043;-59
2021/10/13 14:31:45;;;;;;;11.63;6.37;;;;;;;;;;5095034;28;20057;-60
2021/10/13 14:34:11;;;;;;;14.97;6.63;;;;;;;;;;5094682;28;20052;-59
2021/10/13 14:36:38;;;;;;;9.50;6.00;;;;;;;;;;5100811;28;20098;-60
2021/10/13 14:39:05;;;;;;;8.33;5.70;;;;;;;;;;5111297;28;20394;-59
2021/10/13 14:41:32;;;;;;;12.80;6.37;;;;;;;;;;5110000;28;20019;-60
2021/10/13 14:43:59;;;;;;;11.73;6.97;;;;;;;;;;5109885;28;20055;-59
2021/10/13 14:46:26;;;;;;;9.50;6.33;;;;;;;;;;5105339;28;20028;-60
2021/10/13 14:48:52;;;;;;;11.53;7.03;;;;;;;;;;5092787;28;20024;-60
2021/10/13 14:51:19;;;;;;;9.53;6.40;;;;;;;;;;5094389;28;20028;-60
2021/10/13 14:53:46;;;;;;;10.37;6.03;;;;;;;;;;5094752;28;20119;-60
2021/10/13 14:56:14;;;;;;;12.13;7.67;;;;;;;;;;5096644;28;20453;-60
2021/10/13 14:58:41;;;;;;;15.33;7.10;;;;;;;;;;5115054;28;20020;-60
2021/10/13 15:01:08;;;;;;;13.70;7.70;;;;;;;;;;5111436;28;20076;-60
2021/10/13 15:03:35;;;;;;;10.13;7.00;;;;;;;;;;5095682;28;20040;-60
2021/10/13 15:06:02;;;;;;;12.73;7.10;;;;;;;;;;5088830;28;20021;-60
2021/10/13 15:08:29;;;;;;;12.67;7.50;;;;;;;;;;5089339;28;20043;-60
2021/10/13 15:10:57;;;;;;;9.10;6.23;;;;;;;;;;5091758;28;20028;-60
2021/10/13 15:13:24;;;;;;;12.33;7.27;;;;;;;;;;5104517;28;20114;-60
2021/10/13 15:15:50;;;;;;;10.80;7.47;;;;;;;;;;5114636;28;20110;-60
2021/10/13 15:18:17;;;;;;;13.33;6.90;;;;;;;;;;5114523;28;20019;-60
2021/10/13 15:20:44;;;;;;;13.70;6.57;;;;;;;;;;5114643;28;20073;-60
2021/10/13 15:23:12;;;;;;;10.03;5.87;;;;;;;;;;5101605;28;20544;-60
2021/10/13 15:25:40;;;;;;;7.83;5.50;;;;;;;;;;5103194;28;20042;-60
2021/10/13 15:28:07;;;;;;;6.20;4.47;;;;;;;;;;5109036;28;20035;-61
2021/10/13 15:30:34;;;;;;;6.80;4.38;;;;;;;;;;5109134;28;20401;-59
2021/10/13 15:33:01;;;;;;;6.15;4.07;;;;;;;;;;5111406;28;20030;-60
2021/10/13 15:35:28;;;;;;;5.30;4.53;;;;;;;;;;5101807;28;20032;-60
2021/10/13 15:37:55;;;;;;;5.38;4.05;;;;;;;;;;5093573;28;20016;-60
2021/10/13 15:40:22;;;;;;;8.07;4.05;;;;;;;;;;5105708;28;20105;-60
2021/10/13 15:42:49;;;;;;;6.95;4.60;;;;;;;;;;5113922;28;20035;-60
2021/10/13 15:45:16;;;;;;;12.32;4.88;;;;;;;;;;5111300;28;20023;-60
2021/10/13 15:47:43;;;;;;;5.90;4.65;;;;;;;;;;5109028;28;20023;-60
2021/10/13 15:50:10;;;;;;;7.47;5.18;;;;;;;;;;5098795;28;20032;-60
2021/10/13 15:52:40;;;;;;;8.70;5.00;;;;;;;;;;5088165;28;20016;-60
2021/10/13 15:55:09;;;;;;;8.38;5.13;;;;;;;;;;5089958;28;20467;-60
2021/10/13 15:57:35;;;;;;;7.80;5.10;;;;;;;;;;5093536;28;20734;-60
2021/10/13 16:00:03;;;;;;;6.63;5.65;;;;;;;;;;5101527;28;20020;-60
2021/10/13 16:02:30;;;;;;;8.23;5.07;;;;;;;;;;5113714;28;20038;-60
2021/10/13 16:04:57;;;;;;;7.20;5.18;;;;;;;;;;5113626;28;20030;-60
2021/10/13 16:07:23;;;;;;;8.95;5.28;;;;;;;;;;5111291;28;20500;-61
2021/10/13 16:09:51;;;;;;;6.55;4.57;;;;;;;;;;5100975;28;20028;-60
2021/10/13 16:12:18;;;;;;;7.35;4.80;;;;;;;;;;5087934;28;20028;-60
2021/10/13 16:14:45;;;;;;;6.80;5.13;;;;;;;;;;5088055;28;20433;-60